Time;durP1;ratioP1;P1;durP2;ratioP2;P2;SDS_P1;SDS_P2;PMS_P1;PMS_P2;Temp;Humidity;BMP_temperature;BMP_pressure;BME280_temperature;BME280_humidity;BME280_pressure;Samples;Min_cycle;Max_cycle;Signal;HPM_P1;HPM_P2
2022/05/22 00:03:13;;;;;;;8.43;4.53;;;;;;;;;;8265735;28;20062;-83
2022/05/22 00:07:16;;;;;;;9.38;4.68;;;;;;;;;;8266060;28;20050;-84
2022/05/22 00:11:19;;;;;;;8.57;4.38;;;;;;;;;;8266080;28;20046;-83
2022/05/22 00:15:23;;;;;;;8.88;4.20;;;;;;;;;;8259461;28;20061;-83
2022/05/22 00:19:28;;;;;;;8.63;3.90;;;;;;;;;;8265720;28;20057;-82
2022/05/22 00:23:33;;;;;;;9.23;4.40;;;;;;;;;;8265675;28;20054;-83
2022/05/22 00:27:35;;;;;;;8.95;4.25;;;;;;;;;;8265059;28;20089;-82
2022/05/22 00:31:39;;;;;;;6.57;4.03;;;;;;;;;;8264817;28;20428;-82
2022/05/22 00:35:42;;;;;;;5.90;3.67;;;;;;;;;;8265136;28;20093;-83
2022/05/22 00:39:45;;;;;;;6.28;3.88;;;;;;;;;;8265822;28;20055;-84
2022/05/22 00:43:50;;;;;;;7.70;3.95;;;;;;;;;;8264892;28;20052;-81
2022/05/22 00:47:55;;;;;;;6.53;3.80;;;;;;;;;;8255174;28;20047;-82
2022/05/22 00:52:01;;;;;;;7.95;3.80;;;;;;;;;;8260244;28;20129;-81
2022/05/22 00:56:09;;;;;;;7.18;3.60;;;;;;;;;;8264317;28;20042;-81
2022/05/22 01:00:14;;;;;;;5.75;3.63;;;;;;;;;;8256342;28;20542;-80
2022/05/22 01:04:24;;;;;;;5.07;3.40;;;;;;;;;;8260892;28;20410;-81
2022/05/22 01:08:26;;;;;;;7.28;3.38;;;;;;;;;;8244357;28;20050;-81
2022/05/22 01:12:29;;;;;;;6.18;3.42;;;;;;;;;;8262729;28;20050;-80
2022/05/22 01:16:33;;;;;;;6.57;3.70;;;;;;;;;;8261651;28;20488;-80
2022/05/22 01:20:37;;;;;;;6.10;3.00;;;;;;;;;;8245244;28;20042;-80
2022/05/22 01:24:42;;;;;;;7.80;3.40;;;;;;;;;;8253831;28;20062;-80
2022/05/22 01:28:45;;;;;;;6.63;3.95;;;;;;;;;;8262905;28;20051;-81
2022/05/22 01:32:49;;;;;;;7.80;3.40;;;;;;;;;;8261167;28;20073;-80
2022/05/22 01:36:52;;;;;;;6.32;3.00;;;;;;;;;;8259327;28;20051;-81
2022/05/22 01:40:56;;;;;;;5.32;2.92;;;;;;;;;;8263273;28;20042;-80
2022/05/22 01:44:59;;;;;;;7.93;3.67;;;;;;;;;;8269714;28;20038;-81
2022/05/22 01:49:02;;;;;;;7.28;3.20;;;;;;;;;;8268511;28;20054;-81
2022/05/22 01:53:05;;;;;;;5.55;3.22;;;;;;;;;;8269971;28;20097;-81
2022/05/22 01:57:09;;;;;;;4.70;3.03;;;;;;;;;;8268721;28;20050;-83
2022/05/22 02:01:12;;;;;;;5.70;3.08;;;;;;;;;;8267969;28;20069;-83
2022/05/22 02:05:16;;;;;;;6.47;3.40;;;;;;;;;;8266751;28;20050;-82
2022/05/22 02:09:19;;;;;;;6.07;3.40;;;;;;;;;;8264302;28;20046;-85
2022/05/22 02:13:25;;;;;;;6.53;3.65;;;;;;;;;;8267806;28;20081;-83
2022/05/22 02:17:28;;;;;;;6.53;3.70;;;;;;;;;;8261213;28;20042;-80
2022/05/22 02:21:32;;;;;;;7.05;3.63;;;;;;;;;;8267351;28;20050;-82
2022/05/22 02:25:44;;;;;;;6.53;3.47;;;;;;;;;;8266437;28;20050;-82
2022/05/22 02:29:48;;;;;;;5.40;3.20;;;;;;;;;;8260631;28;20043;-82
2022/05/22 02:33:51;;;;;;;5.88;3.53;;;;;;;;;;8263921;28;20057;-81
2022/05/22 02:37:55;;;;;;;13.95;5.28;;;;;;;;;;8267372;28;20042;-82
2022/05/22 02:42:02;;;;;;;12.43;5.07;;;;;;;;;;8267086;28;20501;-82
2022/05/22 02:46:10;;;;;;;7.93;4.53;;;;;;;;;;8266281;28;20038;-83
2022/05/22 02:50:15;;;;;;;5.43;3.72;;;;;;;;;;8260294;28;20052;-83
2022/05/22 02:54:17;;;;;;;8.20;3.60;;;;;;;;;;8266697;28;20137;-82
2022/05/22 02:58:20;;;;;;;8.57;4.68;;;;;;;;;;8264891;28;20054;-82
2022/05/22 03:02:24;;;;;;;22.08;10.75;;;;;;;;;;8265782;28;20088;-83
2022/05/22 03:06:42;;;;;;;7.50;4.13;;;;;;;;;;8264140;28;20046;-82
2022/05/22 03:10:45;;;;;;;6.00;3.85;;;;;;;;;;8259402;28;20046;-81
2022/05/22 03:14:50;;;;;;;5.88;3.95;;;;;;;;;;8266605;28;20493;-82
2022/05/22 03:18:54;;;;;;;8.05;4.43;;;;;;;;;;8266053;28;20054;-84
2022/05/22 03:22:57;;;;;;;6.75;3.80;;;;;;;;;;8265678;28;20478;-83
2022/05/22 03:27:02;;;;;;;8.18;4.47;;;;;;;;;;8265700;28;20100;-83
2022/05/22 03:31:04;;;;;;;8.00;4.38;;;;;;;;;;8264480;28;20050;-83
2022/05/22 03:35:09;;;;;;;5.75;3.85;;;;;;;;;;8266199;28;20042;-84
2022/05/22 03:39:12;;;;;;;6.32;3.60;;;;;;;;;;8266843;28;20043;-84
2022/05/22 03:43:15;;;;;;;6.40;3.90;;;;;;;;;;8263586;28;20035;-84
2022/05/22 03:47:18;;;;;;;8.75;4.35;;;;;;;;;;8265233;28;20064;-84
2022/05/22 03:51:22;;;;;;;7.53;3.70;;;;;;;;;;8264977;28;20046;-86
2022/05/22 03:55:24;;;;;;;6.90;4.22;;;;;;;;;;8264786;28;20050;-84
2022/05/22 03:59:27;;;;;;;6.32;4.18;;;;;;;;;;8263648;28;20545;-84
2022/05/22 04:03:30;;;;;;;7.10;4.15;;;;;;;;;;8263191;28;20050;-84
2022/05/22 04:07:37;;;;;;;7.05;4.18;;;;;;;;;;8261124;28;20089;-84
2022/05/22 04:11:41;;;;;;;9.63;4.13;;;;;;;;;;8265594;28;20056;-81
2022/05/22 04:15:46;;;;;;;10.20;4.75;;;;;;;;;;8264162;28;20050;-83
2022/05/22 04:19:49;;;;;;;7.63;4.13;;;;;;;;;;8264983;28;20081;-84
2022/05/22 04:28:13;;;;;;;7.55;5.15;;;;;;;;;;8262316;28;20086;-85
2022/05/22 04:32:15;;;;;;;13.02;6.88;;;;;;;;;;8264054;28;20057;-88
2022/05/22 04:36:18;;;;;;;11.48;5.55;;;;;;;;;;8262490;28;20400;-86
2022/05/22 04:40:22;;;;;;;11.82;5.90;;;;;;;;;;8262869;28;20054;-86
2022/05/22 04:44:25;;;;;;;10.75;5.40;;;;;;;;;;8261647;28;20064;-85
2022/05/22 04:48:28;;;;;;;9.23;5.40;;;;;;;;;;8264654;28;20141;-91
2022/05/22 04:52:31;;;;;;;10.90;5.50;;;;;;;;;;8260867;28;20095;-86
2022/05/22 04:56:35;;;;;;;10.15;4.88;;;;;;;;;;8263740;28;20449;-86
2022/05/22 05:00:38;;;;;;;10.45;5.57;;;;;;;;;;8263838;28;20073;-90
2022/05/22 05:04:40;;;;;;;9.48;5.50;;;;;;;;;;8265186;28;20043;-86
2022/05/22 05:08:43;;;;;;;11.98;5.55;;;;;;;;;;8260657;28;20057;-89
2022/05/22 05:12:47;;;;;;;9.80;4.97;;;;;;;;;;8264396;28;20414;-87
2022/05/22 05:16:50;;;;;;;7.85;5.15;;;;;;;;;;8268964;28;20422;-85
2022/05/22 05:20:53;;;;;;;9.13;5.45;;;;;;;;;;8271194;28;20046;-85
2022/05/22 05:24:57;;;;;;;10.20;5.68;;;;;;;;;;8271755;28;20133;-86
2022/05/22 05:29:01;;;;;;;5.85;4.82;;;;;;;;;;8270243;28;20056;-87
2022/05/22 05:33:03;;;;;;;7.95;4.47;;;;;;;;;;8267076;28;20410;-85
2022/05/22 05:37:06;;;;;;;8.32;4.75;;;;;;;;;;8266984;28;20080;-85
2022/05/22 05:41:11;;;;;;;7.13;4.18;;;;;;;;;;8238444;28;20049;-88
2022/05/22 05:45:17;;;;;;;7.90;4.60;;;;;;;;;;8266594;28;20050;-85
2022/05/22 05:49:22;;;;;;;8.90;4.20;;;;;;;;;;8265471;28;20048;-87
2022/05/22 05:53:26;;;;;;;7.85;4.70;;;;;;;;;;8269136;28;20050;-83
2022/05/22 05:57:32;;;;;;;11.10;4.97;;;;;;;;;;8263745;28;20490;-86
2022/05/22 06:01:41;;;;;;;7.65;5.35;;;;;;;;;;8204334;29;20508;-86
2022/05/22 06:05:48;;;;;;;7.57;3.83;;;;;;;;;;8203887;29;20054;-86
2022/05/22 06:09:55;;;;;;;6.13;3.55;;;;;;;;;;8205062;28;20050;-85
2022/05/22 06:14:03;;;;;;;6.18;3.00;;;;;;;;;;8202960;29;20480;-87
2022/05/22 06:18:10;;;;;;;9.68;3.40;;;;;;;;;;8203745;28;20061;-90
2022/05/22 06:22:16;;;;;;;11.90;4.57;;;;;;;;;;8204553;28;20484;-85
2022/05/22 06:26:19;;;;;;;9.50;4.72;;;;;;;;;;8203375;28;20069;-84
2022/05/22 06:30:24;;;;;;;12.73;4.93;;;;;;;;;;8198860;28;20414;-87
2022/05/22 06:34:35;;;;;;;9.43;4.70;;;;;;;;;;8192056;29;20051;-85
2022/05/22 06:43:01;;;;;;;11.20;4.13;;;;;;;;;;8202867;29;20043;-83
2022/05/22 06:47:05;;;;;;;5.65;4.30;;;;;;;;;;8201531;28;20051;-84
2022/05/22 06:51:17;;;;;;;9.27;4.30;;;;;;;;;;8201215;28;20051;-84
2022/05/22 06:55:23;;;;;;;6.43;4.45;;;;;;;;;;8200834;28;20471;-83
2022/05/22 06:59:34;;;;;;;7.72;4.82;;;;;;;;;;8226785;28;20072;-86
2022/05/22 07:03:38;;;;;;;;;;;;;;;;;;8264727;28;20070;-87
2022/05/22 07:08:06;;;;;;;7.78;4.00;;;;;;;;;;8255983;28;19952;-87
2022/05/22 07:12:28;;;;;;;5.78;3.67;;;;;;;;;;8264475;28;20081;-85
2022/05/22 07:16:42;;;;;;;9.57;3.80;;;;;;;;;;8266320;28;20477;-88
2022/05/22 07:20:54;;;;;;;5.30;3.38;;;;;;;;;;8259153;28;20093;-88
2022/05/22 07:24:59;;;;;;;5.57;4.00;;;;;;;;;;8260434;28;20046;-86
2022/05/22 07:29:05;;;;;;;6.55;4.13;;;;;;;;;;8276048;28;20057;-86
2022/05/22 07:33:09;;;;;;;6.63;3.88;;;;;;;;;;8267152;28;20417;-85
2022/05/22 07:37:13;;;;;;;5.00;3.38;;;;;;;;;;8267674;28;20051;-84
2022/05/22 07:41:18;;;;;;;5.30;3.15;;;;;;;;;;8260564;28;20054;-87
2022/05/22 07:45:27;;;;;;;6.07;3.53;;;;;;;;;;8263519;28;20411;-86
2022/05/22 07:53:52;;;;;;;7.47;3.70;;;;;;;;;;8263882;28;20137;-83
2022/05/22 07:57:57;;;;;;;8.02;4.10;;;;;;;;;;8266445;28;20058;-87
2022/05/22 08:02:03;;;;;;;9.82;4.72;;;;;;;;;;8266513;28;20042;-87
2022/05/22 08:06:06;;;;;;;9.75;3.92;;;;;;;;;;8260059;28;20211;-85
2022/05/22 08:10:12;;;;;;;4.10;2.58;;;;;;;;;;8260518;28;20042;-85
2022/05/22 08:14:21;;;;;;;4.55;2.60;;;;;;;;;;8261323;28;20138;-86
2022/05/22 08:18:26;;;;;;;5.13;2.78;;;;;;;;;;8260762;28;20046;-87
2022/05/22 08:22:29;;;;;;;4.05;2.65;;;;;;;;;;8265512;28;20121;-82
2022/05/22 08:26:32;;;;;;;6.60;2.70;;;;;;;;;;8257704;28;20085;-85
2022/05/22 08:30:39;;;;;;;4.22;2.55;;;;;;;;;;8262394;28;20482;-85
2022/05/22 08:34:43;;;;;;;4.65;2.60;;;;;;;;;;8265160;28;20046;-85
2022/05/22 08:38:46;;;;;;;4.95;2.78;;;;;;;;;;8264182;28;20057;-86
2022/05/22 08:42:51;;;;;;;2.97;2.40;;;;;;;;;;8265280;28;20158;-85
2022/05/22 08:47:01;;;;;;;3.78;2.53;;;;;;;;;;8265380;28;20057;-84
2022/05/22 08:51:10;;;;;;;4.05;2.60;;;;;;;;;;8264370;28;20069;-86
2022/05/22 08:55:17;;;;;;;3.15;2.70;;;;;;;;;;8264653;28;20129;-86
2022/05/22 08:59:22;;;;;;;7.03;3.00;;;;;;;;;;8264913;28;20058;-84
2022/05/22 09:03:31;;;;;;;4.78;3.20;;;;;;;;;;8252631;28;20786;-87
2022/05/22 09:07:49;;;;;;;4.85;3.00;;;;;;;;;;8264364;28;20462;-86
2022/05/22 09:12:03;;;;;;;6.13;3.10;;;;;;;;;;8259536;28;20061;-87
2022/05/22 09:16:13;;;;;;;9.50;3.67;;;;;;;;;;8263928;28;20077;-86
2022/05/22 09:20:28;;;;;;;3.83;3.00;;;;;;;;;;8264972;28;20144;-86
2022/05/22 09:24:53;;;;;;;4.28;3.25;;;;;;;;;;8257585;28;20051;-85
2022/05/22 09:29:09;;;;;;;6.13;2.90;;;;;;;;;;8249185;28;21392;-84
2022/05/22 09:33:25;;;;;;;5.40;3.05;;;;;;;;;;8255068;28;20492;-87
2022/05/22 09:37:41;;;;;;;4.07;2.92;;;;;;;;;;8263449;28;20537;-90
2022/05/22 09:42:03;;;;;;;239.32;103.63;;;;;;;;;;8262308;28;20042;-86
2022/05/22 09:46:24;;;;;;;7.35;5.50;;;;;;;;;;8257549;28;20070;-85
2022/05/22 09:50:32;;;;;;;;;;;;;;;;;;8260046;28;20042;-84
2022/05/22 09:55:08;;;;;;;4.50;2.80;;;;;;;;;;8254487;28;19964;-87
2022/05/22 09:59:27;;;;;;;5.15;2.42;;;;;;;;;;8256272;28;20113;-83
2022/05/22 10:03:40;;;;;;;6.90;3.97;;;;;;;;;;8262721;28;20482;-89
2022/05/22 10:07:56;;;;;;;10.05;3.00;;;;;;;;;;8265528;28;20046;-89
2022/05/22 10:12:15;;;;;;;8.15;3.97;;;;;;;;;;8261204;28;20046;-86
2022/05/22 10:16:30;;;;;;;23.67;14.15;;;;;;;;;;8262520;28;20097;-88
2022/05/22 10:20:47;;;;;;;12.02;4.32;;;;;;;;;;8267725;28;20074;-83
2022/05/22 10:24:59;;;;;;;7.80;3.17;;;;;;;;;;8264179;28;20053;-85
2022/05/22 10:29:22;;;;;;;7.55;2.58;;;;;;;;;;8260869;28;20049;-83
2022/05/22 10:33:31;;;;;;;5.72;2.05;;;;;;;;;;8261889;28;20050;-83
2022/05/22 10:37:39;;;;;;;8.30;2.65;;;;;;;;;;8264445;28;20379;-83
2022/05/22 10:46:13;;;;;;;8.07;2.20;;;;;;;;;;8260946;28;20046;-86
2022/05/22 10:50:21;;;;;;;4.20;2.03;;;;;;;;;;8262073;28;20050;-84
2022/05/22 10:54:28;;;;;;;3.55;1.90;;;;;;;;;;8265322;28;20523;-85
2022/05/22 10:58:36;;;;;;;2.05;1.63;;;;;;;;;;8261889;28;20050;-86
2022/05/22 11:02:41;;;;;;;2.83;1.60;;;;;;;;;;8260349;28;20105;-88
2022/05/22 11:06:55;;;;;;;3.50;1.70;;;;;;;;;;8260671;28;20046;-85
2022/05/22 11:11:11;;;;;;;4.10;1.98;;;;;;;;;;8256606;28;20077;-84
2022/05/22 11:15:25;;;;;;;3.58;2.08;;;;;;;;;;8263005;28;20046;-87
2022/05/22 11:19:31;;;;;;;11.07;3.30;;;;;;;;;;8261057;28;20479;-86
2022/05/22 11:24:02;;;;;;;5.55;2.60;;;;;;;;;;8261742;28;20121;-89
2022/05/22 11:28:24;;;;;;;6.47;2.55;;;;;;;;;;8254944;28;20084;-87
2022/05/22 11:32:48;;;;;;;7.00;2.45;;;;;;;;;;8255915;28;20050;-88
2022/05/22 11:37:05;;;;;;;8.98;2.92;;;;;;;;;;8261286;28;20510;-86
2022/05/22 11:41:25;;;;;;;8.00;2.65;;;;;;;;;;8258376;28;20141;-85
2022/05/22 11:45:40;;;;;;;7.93;3.10;;;;;;;;;;8253847;28;20042;-89
2022/05/22 11:49:55;;;;;;;9.40;3.65;;;;;;;;;;8256652;28;20049;-89
2022/05/22 11:54:20;;;;;;;4.68;2.60;;;;;;;;;;8258909;28;20454;-85
2022/05/22 11:58:36;;;;;;;6.53;2.42;;;;;;;;;;8257046;28;20213;-84
2022/05/22 12:03:06;;;;;;;7.40;2.90;;;;;;;;;;8258358;28;20495;-84
2022/05/22 12:07:33;;;;;;;5.00;2.50;;;;;;;;;;8251726;28;20138;-84
2022/05/22 12:11:47;;;;;;;5.00;2.60;;;;;;;;;;8260141;28;20479;-83
2022/05/22 12:15:57;;;;;;;2.78;2.33;;;;;;;;;;8261399;28;20057;-84
2022/05/22 12:20:23;;;;;;;6.53;2.60;;;;;;;;;;8242809;28;20042;-83
2022/05/22 12:25:13;;;;;;;3.78;2.35;;;;;;;;;;8247182;28;20122;-83
2022/05/22 12:30:02;;;;;;;5.60;2.85;;;;;;;;;;8258103;28;20054;-84
2022/05/22 12:34:22;;;;;;;5.00;2.10;;;;;;;;;;8257904;28;20054;-85
2022/05/22 12:38:28;;;;;;;10.13;2.70;;;;;;;;;;8262904;28;20085;-86
2022/05/22 12:42:44;;;;;;;6.63;2.83;;;;;;;;;;8261622;28;20069;-85
2022/05/22 12:46:54;;;;;;;8.25;2.70;;;;;;;;;;8256638;28;20042;-85
2022/05/22 12:51:18;;;;;;;9.75;2.63;;;;;;;;;;8259119;28;20578;-86
2022/05/22 12:55:24;;;;;;;5.32;2.13;;;;;;;;;;8255737;28;20053;-86
2022/05/22 12:59:29;;;;;;;5.65;2.17;;;;;;;;;;8259548;28;20054;-84
2022/05/22 13:03:40;;;;;;;4.85;2.10;;;;;;;;;;8262853;28;20069;-84
2022/05/22 13:07:44;;;;;;;3.67;2.17;;;;;;;;;;8259474;28;20042;-88
2022/05/22 13:11:53;;;;;;;5.05;2.47;;;;;;;;;;8263762;28;20059;-85
2022/05/22 13:16:04;;;;;;;6.07;3.00;;;;;;;;;;8260143;28;20077;-90
2022/05/22 13:20:27;;;;;;;5.53;2.57;;;;;;;;;;8257071;28;20042;-89
2022/05/22 13:24:32;;;;;;;6.95;2.80;;;;;;;;;;8256543;28;20049;-88
2022/05/22 13:28:48;;;;;;;4.50;2.40;;;;;;;;;;8252602;28;20403;-91
2022/05/22 13:32:56;;;;;;;6.50;2.58;;;;;;;;;;8253303;28;20053;-89
2022/05/22 13:37:04;;;;;;;7.13;2.53;;;;;;;;;;8256172;28;20057;-89
2022/05/22 13:41:33;;;;;;;4.57;2.45;;;;;;;;;;8250311;28;20046;-90
2022/05/22 13:46:07;;;;;;;5.88;2.65;;;;;;;;;;8268328;28;20081;-89
2022/05/22 13:54:49;;;;;;;8.85;3.70;;;;;;;;;;8265954;28;20466;-90
2022/05/22 13:58:52;;;;;;;8.63;3.22;;;;;;;;;;8264388;28;20406;-90
2022/05/22 14:03:00;;;;;;;5.47;3.15;;;;;;;;;;8266043;28;20046;-91
2022/05/22 14:07:09;;;;;;;8.20;3.22;;;;;;;;;;8267974;28;20457;-90
2022/05/22 14:11:23;;;;;;;6.15;2.72;;;;;;;;;;8267137;28;20500;-90
2022/05/22 14:15:28;;;;;;;6.18;3.30;;;;;;;;;;8268091;28;20054;-90
2022/05/22 14:19:33;;;;;;;11.15;2.90;;;;;;;;;;8267410;28;20504;-90
2022/05/22 14:27:58;;;;;;;5.47;2.80;;;;;;;;;;8266669;28;20054;-86
2022/05/22 14:32:01;;;;;;;4.93;2.80;;;;;;;;;;8265770;28;20042;-83
2022/05/22 14:36:07;;;;;;;5.15;3.08;;;;;;;;;;8266926;28;20050;-84
2022/05/22 14:40:22;;;;;;;6.75;3.53;;;;;;;;;;8267956;28;20050;-84
2022/05/22 14:44:32;;;;;;;7.80;3.22;;;;;;;;;;8260955;28;20045;-84
2022/05/22 14:48:38;;;;;;;5.45;2.90;;;;;;;;;;8263727;28;20356;-86
2022/05/22 14:52:45;;;;;;;4.45;2.28;;;;;;;;;;8263375;28;20050;-86
2022/05/22 14:56:54;;;;;;;4.53;2.70;;;;;;;;;;8257904;28;20475;-87
2022/05/22 15:01:09;;;;;;;4.55;2.75;;;;;;;;;;8262337;28;20124;-89
2022/05/22 15:05:16;;;;;;;4.57;2.25;;;;;;;;;;8261812;28;20130;-88
2022/05/22 15:09:26;;;;;;;3.38;2.13;;;;;;;;;;8258141;28;20112;-89
2022/05/22 15:13:33;;;;;;;5.47;2.15;;;;;;;;;;8264164;28;20051;-86
2022/05/22 15:17:41;;;;;;;7.20;2.88;;;;;;;;;;8265799;28;20619;-89
2022/05/22 15:21:44;;;;;;;8.32;2.70;;;;;;;;;;8259480;28;20153;-90
2022/05/22 15:25:49;;;;;;;5.40;2.45;;;;;;;;;;8263739;28;20134;-88
2022/05/22 15:29:52;;;;;;;8.00;2.95;;;;;;;;;;8265696;28;20445;-86
2022/05/22 15:33:58;;;;;;;3.75;2.42;;;;;;;;;;8264372;28;20046;-89
2022/05/22 15:38:01;;;;;;;4.63;2.20;;;;;;;;;;8265112;28;20406;-88
2022/05/22 15:42:15;;;;;;;4.32;2.20;;;;;;;;;;8265380;28;20096;-89
2022/05/22 15:46:28;;;;;;;4.97;2.75;;;;;;;;;;8264462;28;20081;-89
2022/05/22 15:50:48;;;;;;;7.00;2.70;;;;;;;;;;8263010;28;20046;-89
2022/05/22 15:54:51;;;;;;;5.32;2.60;;;;;;;;;;8264328;28;20074;-89
2022/05/22 15:58:54;;;;;;;6.00;2.85;;;;;;;;;;8264396;28;20050;-86
2022/05/22 16:02:59;;;;;;;12.48;4.00;;;;;;;;;;8260263;28;20043;-89
2022/05/22 16:07:05;;;;;;;11.90;4.05;;;;;;;;;;8260925;28;20406;-89
2022/05/22 16:11:09;;;;;;;7.55;3.67;;;;;;;;;;8262640;28;20046;-89
2022/05/22 16:15:15;;;;;;;9.48;4.03;;;;;;;;;;8261137;28;20050;-89
2022/05/22 16:19:22;;;;;;;10.45;3.08;;;;;;;;;;8265118;28;20046;-90
2022/05/22 16:23:28;;;;;;;5.78;2.80;;;;;;;;;;8264763;28;20046;-90
2022/05/22 16:27:31;;;;;;;5.20;2.75;;;;;;;;;;8262812;28;20046;-89
2022/05/22 16:31:37;;;;;;;5.38;3.00;;;;;;;;;;8259657;28;20053;-88
2022/05/22 16:35:41;;;;;;;4.13;2.60;;;;;;;;;;8261533;28;20056;-88
2022/05/22 16:39:46;;;;;;;6.40;3.28;;;;;;;;;;8258339;28;20058;-90
2022/05/22 16:43:49;;;;;;;3.78;2.40;;;;;;;;;;8261230;28;20054;-88
2022/05/22 16:56:35;;;;;;;5.97;3.10;;;;;;;;;;8257603;28;20049;-89
2022/05/22 17:00:39;;;;;;;6.63;2.80;;;;;;;;;;8260215;28;20066;-87
2022/05/22 17:04:42;;;;;;;4.40;2.80;;;;;;;;;;8263342;28;20050;-87
2022/05/22 17:08:49;;;;;;;6.43;2.65;;;;;;;;;;8259845;28;20450;-87
2022/05/22 17:12:54;;;;;;;9.20;4.05;;;;;;;;;;8259644;28;20046;-88
2022/05/22 17:17:00;;;;;;;7.55;3.70;;;;;;;;;;8264706;28;20054;-87
2022/05/22 17:21:04;;;;;;;9.40;3.92;;;;;;;;;;8269131;28;20046;-87
2022/05/22 17:25:11;;;;;;;7.78;3.85;;;;;;;;;;8270566;28;20050;-86
2022/05/22 17:29:16;;;;;;;8.02;4.20;;;;;;;;;;8262958;28;20398;-87
2022/05/22 17:33:19;;;;;;;12.63;5.40;;;;;;;;;;8269999;28;20042;-86
2022/05/22 17:37:26;;;;;;;8.43;5.40;;;;;;;;;;8266415;28;20069;-86
2022/05/22 17:41:31;;;;;;;7.88;4.85;;;;;;;;;;8261069;28;20425;-86
2022/05/22 17:45:36;;;;;;;9.88;4.97;;;;;;;;;;8251812;28;20047;-86
2022/05/22 17:49:39;;;;;;;8.75;4.95;;;;;;;;;;8267516;28;20046;-86
2022/05/22 17:53:45;;;;;;;8.50;4.93;;;;;;;;;;8267803;28;20093;-88
2022/05/22 17:57:52;;;;;;;8.20;5.57;;;;;;;;;;8261789;28;20050;-87
2022/05/22 18:02:10;;;;;;;10.27;4.80;;;;;;;;;;8246111;28;20038;-88
2022/05/22 18:06:22;;;;;;;8.02;5.18;;;;;;;;;;8263077;28;20042;-87
2022/05/22 18:19:32;;;;;;;12.05;5.78;;;;;;;;;;8265529;28;20137;-88
2022/05/22 18:23:40;;;;;;;12.75;6.00;;;;;;;;;;8264106;28;20054;-87
2022/05/22 18:27:50;;;;;;;11.35;5.70;;;;;;;;;;8263532;28;20058;-86
2022/05/22 18:31:56;;;;;;;9.20;5.40;;;;;;;;;;8257939;28;20541;-87
2022/05/22 18:36:08;;;;;;;9.23;5.10;;;;;;;;;;8241773;28;20054;-86
2022/05/22 18:40:32;;;;;;;13.43;5.25;;;;;;;;;;8254810;28;20061;-87
2022/05/22 18:44:40;;;;;;;7.72;4.47;;;;;;;;;;8261866;28;20047;-86
2022/05/22 18:48:47;;;;;;;7.15;3.88;;;;;;;;;;8245226;28;20042;-87
2022/05/22 18:52:54;;;;;;;8.98;3.83;;;;;;;;;;8260373;28;20050;-86
2022/05/22 18:56:57;;;;;;;9.43;4.15;;;;;;;;;;8268441;28;20050;-85
2022/05/22 19:01:02;;;;;;;10.00;4.60;;;;;;;;;;8267784;28;20073;-85
2022/05/22 19:05:06;;;;;;;11.90;4.78;;;;;;;;;;8262031;28;20054;-85
2022/05/22 19:09:17;;;;;;;8.00;4.95;;;;;;;;;;8268502;28;20375;-86
2022/05/22 19:13:24;;;;;;;10.88;5.18;;;;;;;;;;8266841;28;20057;-87
2022/05/22 19:17:33;;;;;;;10.50;5.47;;;;;;;;;;8264787;28;20588;-87
2022/05/22 19:21:38;;;;;;;10.93;5.53;;;;;;;;;;8256009;28;20047;-86
2022/05/22 19:25:49;;;;;;;12.13;5.68;;;;;;;;;;8249483;28;20403;-86
2022/05/22 19:30:04;;;;;;;13.32;5.78;;;;;;;;;;8244201;28;20063;-86
2022/05/22 19:34:11;;;;;;;10.90;5.05;;;;;;;;;;8249780;28;20042;-87
2022/05/22 19:38:14;;;;;;;9.60;5.15;;;;;;;;;;8254435;28;20052;-86
2022/05/22 19:46:46;;;;;;;14.57;6.45;;;;;;;;;;8266677;28;20048;-86
2022/05/22 19:50:54;;;;;;;15.95;6.82;;;;;;;;;;8265744;28;20134;-85
2022/05/22 19:59:27;;;;;;;10.30;5.60;;;;;;;;;;8266206;28;20054;-85
2022/05/22 20:03:33;;;;;;;6.68;4.78;;;;;;;;;;8263871;28;20145;-86
2022/05/22 20:07:42;;;;;;;7.75;5.20;;;;;;;;;;8260662;28;20096;-86
2022/05/22 20:11:58;;;;;;;5.85;4.47;;;;;;;;;;8266201;28;20089;-85
2022/05/22 20:16:21;;;;;;;6.60;4.57;;;;;;;;;;8265927;28;20073;-86
2022/05/22 20:20:25;;;;;;;8.23;5.10;;;;;;;;;;8265792;28;20046;-85
2022/05/22 20:24:29;;;;;;;9.48;4.57;;;;;;;;;;8266547;28;20057;-85
2022/05/22 20:28:36;;;;;;;8.75;4.40;;;;;;;;;;8265847;28;20046;-85
2022/05/22 20:32:42;;;;;;;8.95;4.80;;;;;;;;;;8265621;28;20049;-86
2022/05/22 20:36:45;;;;;;;7.93;4.53;;;;;;;;;;8265452;28;20054;-85
2022/05/22 20:40:49;;;;;;;7.63;4.82;;;;;;;;;;8265764;28;20478;-87
2022/05/22 20:44:53;;;;;;;8.55;4.55;;;;;;;;;;8264776;28;20046;-84
2022/05/22 20:48:58;;;;;;;9.48;5.30;;;;;;;;;;8264806;28;20050;-85
2022/05/22 20:53:01;;;;;;;7.78;5.10;;;;;;;;;;8265212;28;20053;-84
2022/05/22 20:57:05;;;;;;;9.63;6.10;;;;;;;;;;8265505;28;20046;-84
2022/05/22 21:01:08;;;;;;;10.98;5.90;;;;;;;;;;8259034;28;20089;-84
2022/05/22 21:05:12;;;;;;;10.55;5.45;;;;;;;;;;8265065;28;20052;-84
2022/05/22 21:09:16;;;;;;;9.88;5.55;;;;;;;;;;8265461;28;20407;-84
2022/05/22 21:13:20;;;;;;;8.02;5.63;;;;;;;;;;8264902;28;20078;-84
2022/05/22 21:17:22;;;;;;;10.32;5.45;;;;;;;;;;8264863;28;20047;-83
2022/05/22 21:21:27;;;;;;;11.23;6.25;;;;;;;;;;8264739;28;20074;-84
2022/05/22 21:29:50;;;;;;;9.52;5.47;;;;;;;;;;8264718;28;20060;-84
2022/05/22 21:33:53;;;;;;;11.15;5.85;;;;;;;;;;8264724;28;20047;-83
2022/05/22 21:37:57;;;;;;;10.73;6.03;;;;;;;;;;8257977;28;20054;-84
2022/05/22 21:42:00;;;;;;;10.10;6.00;;;;;;;;;;8264494;28;20129;-83
2022/05/22 21:46:04;;;;;;;10.73;5.43;;;;;;;;;;8264711;28;20548;-83
2022/05/22 21:50:08;;;;;;;12.25;6.63;;;;;;;;;;8264342;28;20126;-83
2022/05/22 21:54:14;;;;;;;9.38;5.38;;;;;;;;;;8264256;28;20042;-83
2022/05/22 21:58:17;;;;;;;11.80;6.13;;;;;;;;;;8267273;28;20470;-86
2022/05/22 22:02:21;;;;;;;6.97;4.80;;;;;;;;;;8270144;28;20053;-83
2022/05/22 22:06:24;;;;;;;10.30;5.20;;;;;;;;;;8270396;28;20073;-83
2022/05/22 22:10:33;;;;;;;9.70;4.32;;;;;;;;;;8270315;28;20137;-83
2022/05/22 22:14:38;;;;;;;8.05;4.35;;;;;;;;;;8270297;28;20538;-84
2022/05/22 22:18:41;;;;;;;7.18;4.15;;;;;;;;;;8269642;28;20058;-83
2022/05/22 22:22:43;;;;;;;8.27;4.13;;;;;;;;;;8270022;28;20053;-83
2022/05/22 22:26:48;;;;;;;7.95;4.10;;;;;;;;;;8269965;28;20046;-83
2022/05/22 22:30:51;;;;;;;8.02;4.03;;;;;;;;;;8269711;28;20442;-83
2022/05/22 22:34:57;;;;;;;8.27;4.13;;;;;;;;;;8269120;28;20069;-84
2022/05/22 22:39:02;;;;;;;6.85;3.72;;;;;;;;;;8269013;28;20081;-83
2022/05/22 22:43:08;;;;;;;6.63;4.10;;;;;;;;;;8268887;28;20058;-83
2022/05/22 22:47:11;;;;;;;9.95;4.20;;;;;;;;;;8268993;28;20061;-83
2022/05/22 22:51:14;;;;;;;9.00;3.95;;;;;;;;;;8268599;28;20050;-83
2022/05/22 22:59:39;;;;;;;7.15;3.30;;;;;;;;;;8268520;28;20062;-83
2022/05/22 23:03:41;;;;;;;5.88;3.40;;;;;;;;;;8268421;28;20418;-83
2022/05/22 23:07:44;;;;;;;13.02;4.72;;;;;;;;;;8267922;28;20050;-83
2022/05/22 23:11:47;;;;;;;23.85;10.20;;;;;;;;;;8267941;28;20069;-83
2022/05/22 23:15:53;;;;;;;28.13;11.35;;;;;;;;;;8267896;28;20052;-83
2022/05/22 23:19:58;;;;;;;23.58;9.40;;;;;;;;;;8268104;28;20046;-84
2022/05/22 23:24:01;;;;;;;26.77;9.77;;;;;;;;;;8267750;28;20046;-83
2022/05/22 23:28:04;;;;;;;21.58;9.15;;;;;;;;;;8267551;28;20043;-83
2022/05/22 23:32:09;;;;;;;17.88;8.35;;;;;;;;;;8259405;28;20043;-82
2022/05/22 23:36:21;;;;;;;16.90;7.32;;;;;;;;;;8262034;28;20559;-83
2022/05/22 23:40:29;;;;;;;14.52;6.38;;;;;;;;;;8259481;28;20046;-87
2022/05/22 23:44:36;;;;;;;12.65;4.90;;;;;;;;;;8262447;28;20054;-84
2022/05/22 23:48:40;;;;;;;9.18;4.45;;;;;;;;;;8266889;28;20058;-84
2022/05/22 23:52:44;;;;;;;7.63;4.25;;;;;;;;;;8254460;28;20057;-83
2022/05/22 23:56:47;;;;;;;9.27;3.88;;;;;;;;;;8251251;28;20499;-83
